Terminal Aerodrome Forecast
Issued by NWS Wilmington, OH

Current Version | Previous Version | Graphics & Text | Print | Product List | Glossary On
Versions: 1 2 3 4 5 6 7 8 9 10 11 12 13 14 15 16 17 18 19 20 21 22 23 24 25
000
FTUS41 KILN 300857 AAA
TAFCVG
TAF AMD
KCVG 300857Z 3009/3112 20004KT P6SM SCT150 BKN250
      TEMPO 3009/3012 5SM BR SKC
     FM301400 21008KT P6SM FEW025 BKN070 OVC150
     FM301800 20008KT P6SM VCSH SCT040 BKN150
     FM302300 22003KT P6SM BKN150
     FM310500 22003KT P6SM BKN025
      TEMPO 3108/3112 4SM BR SKC=

USA.gov is the U.S. government's official web portal to all federal, state and local government web resources and services.